Time;durP1;ratioP1;P1;durP2;ratioP2;P2;SDS_P1;SDS_P2;PMS_P1;PMS_P2;Temp;Humidity;BMP_temperature;BMP_pressure;BME280_temperature;BME280_humidity;BME280_pressure;Samples;Min_cycle;Max_cycle;Signal;HPM_P1;HPM_P2
2020/12/27 00:02:03;;;;;;;6.20;4.05;;;4.70;99.90;;;;;;4999356;28;20104;-80
2020/12/27 00:04:29;;;;;;;6.55;4.75;;;4.70;99.90;;;;;;5004988;28;20086;-82
2020/12/27 00:06:55;;;;;;;8.25;5.60;;;4.70;99.90;;;;;;5010263;28;20081;-81
2020/12/27 00:09:23;;;;;;;10.68;6.80;;;4.70;99.90;;;;;;5010418;28;20073;-81
2020/12/27 00:11:52;;;;;;;10.52;6.35;;;4.70;99.90;;;;;;5008854;28;20082;-81
2020/12/27 00:14:18;;;;;;;11.10;6.43;;;4.60;99.90;;;;;;5003471;28;20046;-79
2020/12/27 00:16:45;;;;;;;6.70;4.82;;;4.60;99.90;;;;;;5003955;28;20089;-81
2020/12/27 00:19:11;;;;;;;10.77;5.60;;;4.60;99.90;;;;;;5000175;28;20136;-79
2020/12/27 00:21:37;;;;;;;5.05;3.53;;;4.60;99.90;;;;;;5001037;28;20078;-80
2020/12/27 00:24:04;;;;;;;7.40;4.85;;;4.60;99.90;;;;;;5000243;28;20117;-79
2020/12/27 00:26:31;;;;;;;8.20;4.28;;;4.60;99.90;;;;;;5000219;28;20093;-80
2020/12/27 00:28:57;;;;;;;10.32;6.05;;;4.60;99.90;;;;;;5000434;28;20152;-81
2020/12/27 00:31:24;;;;;;;9.65;5.70;;;4.60;99.90;;;;;;5001109;28;20146;-80
2020/12/27 00:33:50;;;;;;;8.95;4.93;;;4.60;99.90;;;;;;4998684;28;20046;-79
2020/12/27 00:36:20;;;;;;;8.00;4.53;;;4.60;99.90;;;;;;5003594;28;20065;-79
2020/12/27 00:38:46;;;;;;;6.55;4.00;;;4.60;99.90;;;;;;5001307;28;20572;-81
2020/12/27 00:41:13;;;;;;;8.05;4.78;;;4.70;99.90;;;;;;5000677;28;20055;-80
2020/12/27 00:43:40;;;;;;;5.97;3.38;;;4.60;99.90;;;;;;5007890;28;20054;-80
2020/12/27 00:46:10;;;;;;;5.85;3.05;;;4.60;99.90;;;;;;5006241;28;20050;-81
2020/12/27 00:48:36;;;;;;;5.60;2.95;;;4.70;99.90;;;;;;5010126;28;20077;-82
2020/12/27 00:51:03;;;;;;;4.45;2.92;;;4.70;99.90;;;;;;5008904;28;20089;-80
2020/12/27 00:53:29;;;;;;;3.83;3.00;;;4.70;99.90;;;;;;5007811;28;20085;-81
2020/12/27 00:55:56;;;;;;;3.60;2.58;;;4.70;99.90;;;;;;5007319;28;20057;-80
2020/12/27 00:58:22;;;;;;;3.47;2.63;;;4.70;99.90;;;;;;5008047;28;20057;-81
2020/12/27 01:00:49;;;;;;;5.57;2.65;;;4.70;99.90;;;;;;5008515;28;20065;-80
2020/12/27 01:03:15;;;;;;;3.63;2.58;;;4.70;99.90;;;;;;5007883;28;20078;-80
2020/12/27 01:05:42;;;;;;;3.10;2.60;;;4.70;99.90;;;;;;5006868;28;20513;-80
2020/12/27 01:08:08;;;;;;;4.78;2.55;;;4.80;99.90;;;;;;5008827;28;20159;-81
2020/12/27 01:10:35;;;;;;;2.92;2.50;;;4.70;99.90;;;;;;5007928;28;20074;-81
2020/12/27 01:13:01;;;;;;;3.33;2.53;;;4.80;99.90;;;;;;5007744;28;20092;-82
2020/12/27 01:15:28;;;;;;;3.25;2.50;;;4.70;99.90;;;;;;5007896;28;20050;-81
2020/12/27 01:17:55;;;;;;;4.10;2.40;;;4.80;99.90;;;;;;5008680;28;20053;-81
2020/12/27 01:20:21;;;;;;;2.90;2.60;;;4.70;99.90;;;;;;5007345;28;20054;-81
2020/12/27 01:25:18;;;;;;;3.42;2.55;;;4.70;99.90;;;;;;5015794;28;20061;-78
2020/12/27 01:27:45;;;;;;;2.83;2.53;;;4.60;99.90;;;;;;5001894;28;20506;-80
2020/12/27 01:30:11;;;;;;;4.00;3.00;;;4.70;99.90;;;;;;5001280;28;20407;-79
2020/12/27 01:32:38;;;;;;;2.70;2.38;;;4.60;99.90;;;;;;4998021;28;20074;-80
2020/12/27 01:35:06;;;;;;;3.70;2.75;;;4.60;99.90;;;;;;4981979;28;20141;-80
2020/12/27 01:37:32;;;;;;;3.85;2.78;;;4.60;99.90;;;;;;4982924;28;20138;-80
2020/12/27 01:39:58;;;;;;;3.35;2.50;;;4.70;99.90;;;;;;4984345;28;20404;-79
2020/12/27 01:42:25;;;;;;;4.35;2.22;;;4.70;99.90;;;;;;4983094;28;20099;-79
2020/12/27 01:44:52;;;;;;;3.55;2.80;;;4.70;99.90;;;;;;4983217;28;20415;-79
2020/12/27 01:47:22;;;;;;;3.55;2.35;;;4.70;99.90;;;;;;4983797;28;20086;-79
2020/12/27 01:49:50;;;;;;;4.00;3.20;;;4.70;99.90;;;;;;4983126;28;20078;-80
2020/12/27 01:52:18;;;;;;;5.28;2.90;;;4.70;99.90;;;;;;4983240;28;20141;-79
2020/12/27 01:54:44;;;;;;;2.92;2.47;;;4.70;99.90;;;;;;4983593;28;20086;-82
2020/12/27 01:57:13;;;;;;;4.82;2.83;;;4.60;99.90;;;;;;4980690;28;20519;-81
2020/12/27 01:59:40;;;;;;;4.53;2.60;;;4.80;99.90;;;;;;4980841;28;20113;-81
2020/12/27 02:02:08;;;;;;;3.15;2.53;;;4.70;99.90;;;;;;4981682;28;20071;-81
2020/12/27 02:04:35;;;;;;;3.15;2.70;;;4.70;99.90;;;;;;4981971;28;20055;-82
2020/12/27 02:07:03;;;;;;;3.65;2.47;;;4.80;99.90;;;;;;4982601;28;20046;-82
2020/12/27 02:09:31;;;;;;;3.50;2.60;;;4.70;99.90;;;;;;4981217;28;20083;-82
2020/12/27 02:12:05;;;;;;;4.78;2.72;;;4.70;99.90;;;;;;4979081;28;20483;-81
2020/12/27 02:14:31;;;;;;;4.20;2.17;;;4.70;99.90;;;;;;4979331;28;20074;-80
2020/12/27 02:16:57;;;;;;;4.43;2.58;;;4.70;99.90;;;;;;4981314;28;20057;-81
2020/12/27 02:19:24;;;;;;;4.25;2.67;;;4.70;99.90;;;;;;4983247;28;20506;-81
2020/12/27 02:21:51;;;;;;;3.85;2.53;;;4.70;99.90;;;;;;4982939;28;20051;-82
2020/12/27 02:24:18;;;;;;;2.33;2.13;;;4.70;99.90;;;;;;4983042;28;20074;-82
2020/12/27 02:26:57;;;;;;;2.28;1.98;;;4.70;99.90;;;;;;4983814;28;20054;-83
2020/12/27 02:29:24;;;;;;;4.32;2.65;;;4.70;99.90;;;;;;4985058;28;20113;-83
2020/12/27 02:31:50;;;;;;;3.05;2.30;;;4.70;99.90;;;;;;4984621;28;20518;-83
2020/12/27 02:34:17;;;;;;;3.08;2.30;;;4.70;99.90;;;;;;4984473;28;20082;-81
2020/12/27 02:36:43;;;;;;;2.35;2.15;;;4.70;99.90;;;;;;4985443;28;20054;-82
2020/12/27 02:39:11;;;;;;;2.08;1.88;;;4.70;99.90;;;;;;4986758;28;20038;-82
2020/12/27 02:41:39;;;;;;;3.58;2.47;;;4.70;99.90;;;;;;4989536;28;20046;-82
2020/12/27 02:44:07;;;;;;;2.92;2.47;;;4.80;99.90;;;;;;4990893;28;20455;-82
2020/12/27 02:46:34;;;;;;;3.30;2.22;;;4.70;99.90;;;;;;4995674;28;20059;-82
2020/12/27 02:49:01;;;;;;;3.67;2.95;;;4.80;99.90;;;;;;4991217;28;20054;-82
2020/12/27 02:51:28;;;;;;;3.97;2.38;;;4.80;99.90;;;;;;4988157;28;20050;-83
2020/12/27 02:53:55;;;;;;;2.30;1.88;;;4.80;99.90;;;;;;4982883;28;20074;-82
2020/12/27 02:56:23;;;;;;;4.03;1.73;;;4.80;99.90;;;;;;4982822;28;20055;-81
2020/12/27 02:58:51;;;;;;;3.25;1.98;;;4.80;99.90;;;;;;4982338;28;20126;-82
2020/12/27 03:01:18;;;;;;;1.67;1.48;;;4.90;99.90;;;;;;4981298;28;20034;-84
2020/12/27 03:03:45;;;;;;;4.10;2.30;;;4.80;99.90;;;;;;4981708;28;20059;-83
2020/12/27 03:06:12;;;;;;;2.85;2.28;;;4.90;99.90;;;;;;4981240;28;20129;-82
2020/12/27 03:08:39;;;;;;;3.60;1.70;;;4.90;99.90;;;;;;4980186;28;20070;-83
2020/12/27 03:11:05;;;;;;;2.17;1.85;;;4.90;99.90;;;;;;4981679;28;20057;-79
2020/12/27 03:13:33;;;;;;;3.85;1.63;;;4.90;99.90;;;;;;4980938;28;20075;-84
2020/12/27 03:16:00;;;;;;;2.85;2.00;;;4.90;99.90;;;;;;4980402;28;20077;-83
2020/12/27 03:18:28;;;;;;;3.53;2.13;;;4.90;99.90;;;;;;4982998;28;20145;-82
2020/12/27 03:20:54;;;;;;;3.30;2.03;;;4.90;99.90;;;;;;4984784;28;20054;-82
2020/12/27 03:23:21;;;;;;;2.90;1.92;;;4.90;99.90;;;;;;4984275;28;20081;-82
2020/12/27 03:25:47;;;;;;;2.97;2.00;;;4.90;99.90;;;;;;4982519;28;20145;-83
2020/12/27 03:28:14;;;;;;;1.70;1.48;;;4.90;99.90;;;;;;4981871;28;20057;-81
2020/12/27 03:30:41;;;;;;;2.72;1.60;;;4.80;99.90;;;;;;4982988;28;20051;-82
2020/12/27 03:33:09;;;;;;;1.58;1.45;;;4.90;99.90;;;;;;4982013;28;20058;-82
2020/12/27 03:35:35;;;;;;;3.20;1.60;;;4.90;99.90;;;;;;4981992;28;20454;-82
2020/12/27 03:38:02;;;;;;;2.08;1.50;;;4.90;99.90;;;;;;4982908;28;20071;-82
2020/12/27 03:40:28;;;;;;;9.85;3.90;;;4.90;99.90;;;;;;4986510;28;20491;-81
2020/12/27 03:42:54;;;;;;;2.88;2.58;;;5.00;99.90;;;;;;4994105;28;20070;-82
2020/12/27 03:45:21;;;;;;;2.55;2.13;;;5.00;99.90;;;;;;5005537;28;20391;-82
2020/12/27 03:47:47;;;;;;;3.58;1.67;;;5.00;99.90;;;;;;5006038;28;20046;-81
2020/12/27 03:50:14;;;;;;;1.83;1.38;;;5.00;99.90;;;;;;5004587;28;20188;-82
2020/12/27 03:52:41;;;;;;;12.27;4.63;;;5.10;99.90;;;;;;5004143;28;20062;-82
2020/12/27 03:55:07;;;;;;;15.75;8.30;;;5.10;99.90;;;;;;5006244;28;20085;-82
2020/12/27 03:57:33;;;;;;;10.27;5.93;;;5.10;99.90;;;;;;5004656;28;20082;-81
2020/12/27 04:00:03;;;;;;;3.92;1.75;;;5.10;99.90;;;;;;5004962;28;20070;-81
2020/12/27 04:02:30;;;;;;;4.10;1.90;;;5.10;99.90;;;;;;4984753;28;20081;-82
2020/12/27 04:04:56;;;;;;;2.70;2.30;;;5.10;99.90;;;;;;4986379;28;20468;-83
2020/12/27 04:07:24;;;;;;;6.47;4.88;;;5.10;99.90;;;;;;4985592;28;20055;-85
2020/12/27 04:09:50;;;;;;;2.45;1.88;;;5.00;99.90;;;;;;4985191;28;20082;-85
2020/12/27 04:12:17;;;;;;;3.20;1.90;;;5.10;99.90;;;;;;4983920;28;20078;-84
2020/12/27 04:14:43;;;;;;;2.63;1.58;;;5.00;99.90;;;;;;4985584;28;20067;-83
2020/12/27 04:17:10;;;;;;;2.45;2.25;;;5.00;99.90;;;;;;5002949;28;20050;-84
2020/12/27 04:19:36;;;;;;;1.58;1.45;;;5.00;99.90;;;;;;5005262;28;20092;-83
2020/12/27 04:22:02;;;;;;;2.72;1.38;;;5.00;99.90;;;;;;5004364;28;20548;-83
2020/12/27 04:24:30;;;;;;;1.27;0.90;;;5.00;99.90;;;;;;5004479;28;20081;-83
2020/12/27 04:26:56;;;;;;;2.08;1.60;;;5.00;99.90;;;;;;5005773;28;20513;-84
2020/12/27 04:29:22;;;;;;;2.50;1.98;;;5.00;99.90;;;;;;5005026;28;20070;-84
2020/12/27 04:31:51;;;;;;;3.05;2.50;;;5.00;99.90;;;;;;5005249;28;20077;-83
2020/12/27 04:34:18;;;;;;;2.15;1.33;;;4.90;99.90;;;;;;5005742;28;20049;-83
2020/12/27 04:36:44;;;;;;;2.17;1.90;;;4.90;99.90;;;;;;5005864;28;20104;-84
2020/12/27 04:39:11;;;;;;;1.98;1.25;;;4.90;99.90;;;;;;5005356;28;20050;-83
2020/12/27 04:41:39;;;;;;;2.15;1.55;;;4.90;99.90;;;;;;5005579;28;20066;-83
2020/12/27 04:44:07;;;;;;;2.15;1.27;;;4.80;99.90;;;;;;5006286;28;20042;-83
2020/12/27 04:46:34;;;;;;;1.67;1.42;;;4.90;99.90;;;;;;5006099;28;20089;-83
2020/12/27 04:49:01;;;;;;;2.05;1.10;;;4.90;99.90;;;;;;5006625;28;20053;-83
2020/12/27 04:51:27;;;;;;;2.95;1.63;;;4.90;99.90;;;;;;5004329;28;20085;-83
2020/12/27 04:53:56;;;;;;;1.23;1.08;;;4.90;99.90;;;;;;5004668;28;20058;-83
2020/12/27 04:56:26;;;;;;;2.15;1.33;;;4.90;99.90;;;;;;5005861;28;20290;-83
2020/12/27 04:58:55;;;;;;;1.75;1.08;;;4.80;99.90;;;;;;5005827;28;20109;-85
2020/12/27 05:01:21;;;;;;;2.20;1.90;;;4.90;99.90;;;;;;5007336;28;20077;-83
2020/12/27 05:03:50;;;;;;;1.20;1.20;;;4.90;99.90;;;;;;5011268;28;20050;-83
2020/12/27 05:06:16;;;;;;;2.22;1.20;;;5.00;99.90;;;;;;5013454;28;20050;-84
2020/12/27 05:08:44;;;;;;;1.33;1.10;;;5.00;99.90;;;;;;5015291;28;20047;-83
2020/12/27 05:11:14;;;;;;;2.28;2.08;;;5.00;99.90;;;;;;5014222;28;20051;-83
2020/12/27 05:13:43;;;;;;;5.03;2.63;;;5.10;99.90;;;;;;5014448;28;20060;-85
2020/12/27 05:16:12;;;;;;;3.85;2.38;;;5.00;99.90;;;;;;5014129;28;20057;-84
2020/12/27 05:18:39;;;;;;;2.83;2.50;;;5.10;99.90;;;;;;5007479;28;20109;-84
2020/12/27 05:21:06;;;;;;;0.80;0.75;;;5.10;99.90;;;;;;5006670;28;20047;-83
2020/12/27 05:23:32;;;;;;;4.45;3.65;;;5.20;99.90;;;;;;5008754;28;20479;-84
2020/12/27 05:26:05;;;;;;;1.23;1.00;;;5.10;99.90;;;;;;5014337;28;20065;-84
2020/12/27 05:28:33;;;;;;;3.95;2.17;;;5.00;99.90;;;;;;5015439;28;20509;-84
2020/12/27 05:31:09;;;;;;;1.73;1.23;;;5.00;99.90;;;;;;5015733;28;20085;-84
2020/12/27 05:33:37;;;;;;;13.20;8.55;;;5.00;99.90;;;;;;5014491;28;20073;-84
2020/12/27 05:36:04;;;;;;;3.08;2.28;;;5.10;99.90;;;;;;5013269;28;20069;-84
2020/12/27 05:38:30;;;;;;;1.00;0.90;;;5.10;99.90;;;;;;5012215;28;20082;-84
2020/12/27 05:40:57;;;;;;;5.38;1.70;;;5.10;99.90;;;;;;5009568;28;20073;-84
2020/12/27 05:43:23;;;;;;;1.73;1.58;;;5.10;99.90;;;;;;5005885;28;20058;-84
2020/12/27 05:45:52;;;;;;;2.40;0.95;;;5.10;99.90;;;;;;5007770;28;20062;-83
2020/12/27 05:48:18;;;;;;;2.78;1.70;;;5.10;99.90;;;;;;5004968;28;20061;-85
2020/12/27 05:50:46;;;;;;;4.00;1.63;;;5.10;99.90;;;;;;5005524;28;20097;-85
2020/12/27 05:53:17;;;;;;;3.22;1.70;;;5.10;99.90;;;;;;5004499;28;20082;-83
2020/12/27 05:55:48;;;;;;;3.55;2.63;;;5.10;99.90;;;;;;5005327;28;20050;-85
2020/12/27 05:58:20;;;;;;;5.50;3.85;;;5.20;99.90;;;;;;5003750;28;20066;-84
2020/12/27 06:00:52;;;;;;;3.85;2.85;;;5.20;99.90;;;;;;5005007;28;20085;-87
2020/12/27 06:03:21;;;;;;;0.60;0.60;;;5.20;99.90;;;;;;5007484;28;20077;-82
2020/12/27 06:06:08;;;;;;;2.70;2.00;;;5.20;99.90;;;;;;5005909;28;20086;-82
2020/12/27 06:09:04;;;;;;;3.92;1.92;;;5.20;99.90;;;;;;5004269;28;20046;-83
2020/12/27 06:11:53;;;;;;;8.05;4.43;;;5.20;99.90;;;;;;5003848;28;20085;-82
2020/12/27 06:14:40;;;;;;;7.60;3.30;;;5.20;99.90;;;;;;5003167;28;20046;-84
2020/12/27 06:17:15;;;;;;;1.83;1.02;;;5.20;99.90;;;;;;5002579;28;20066;-84
2020/12/27 06:19:58;;;;;;;6.72;4.15;;;5.20;99.90;;;;;;5002872;28;20050;-83
2020/12/27 06:22:30;;;;;;;3.50;2.78;;;5.20;99.90;;;;;;5003652;28;20042;-81
2020/12/27 06:25:01;;;;;;;3.72;2.03;;;5.20;99.90;;;;;;5002397;28;20139;-83
2020/12/27 06:27:31;;;;;;;1.65;1.23;;;5.20;99.90;;;;;;5003419;28;20486;-84
2020/12/27 06:30:06;;;;;;;1.35;1.08;;;5.30;99.90;;;;;;5003244;28;20089;-83
2020/12/27 06:32:39;;;;;;;2.88;1.15;;;5.30;99.90;;;;;;5002684;28;20056;-84
2020/12/27 06:35:06;;;;;;;;;;;5.30;99.90;;;;;;5004108;28;20050;-84
2020/12/27 06:37:45;;;;;;;2.67;1.08;;;5.30;99.90;;;;;;5003104;28;20373;-84
2020/12/27 06:40:12;;;;;;;2.25;1.17;;;5.30;99.90;;;;;;5003895;28;20062;-84
2020/12/27 06:42:39;;;;;;;3.28;1.80;;;5.20;99.90;;;;;;5002158;28;20078;-83
2020/12/27 06:45:07;;;;;;;4.38;2.10;;;5.20;99.90;;;;;;5002524;28;20085;-85
2020/12/27 06:47:48;;;;;;;2.33;1.50;;;5.20;99.90;;;;;;5002716;28;20073;-85
2020/12/27 06:50:16;;;;;;;3.25;2.20;;;5.20;99.90;;;;;;5002938;28;20074;-84
2020/12/27 06:52:44;;;;;;;1.60;1.15;;;5.20;99.90;;;;;;5005676;28;20058;-85
2020/12/27 06:55:11;;;;;;;1.25;1.10;;;5.20;99.90;;;;;;5003458;28;20054;-82
2020/12/27 06:57:45;;;;;;;2.17;1.85;;;5.30;99.90;;;;;;5000890;28;20046;-83
2020/12/27 07:00:21;;;;;;;3.55;2.08;;;5.30;99.90;;;;;;5001748;28;20050;-83
2020/12/27 07:02:48;;;;;;;3.10;1.98;;;5.30;99.90;;;;;;5000861;28;20050;-84
2020/12/27 07:05:28;;;;;;;3.15;2.00;;;5.30;99.90;;;;;;5001885;28;20073;-83
2020/12/27 07:07:56;;;;;;;2.33;0.93;;;5.30;99.90;;;;;;5002145;28;20042;-83
2020/12/27 07:10:24;;;;;;;1.95;1.48;;;5.20;99.90;;;;;;5000876;28;20140;-83
2020/12/27 07:12:50;;;;;;;1.35;0.98;;;5.20;99.90;;;;;;5001212;28;20070;-83
2020/12/27 07:15:17;;;;;;;2.45;1.92;;;5.30;99.90;;;;;;5000660;28;20327;-83
2020/12/27 07:17:45;;;;;;;2.90;2.70;;;5.20;99.90;;;;;;5001149;28;20050;-83
2020/12/27 07:20:15;;;;;;;3.25;2.90;;;5.30;99.90;;;;;;5000188;28;20047;-84
2020/12/27 07:22:43;;;;;;;1.85;1.20;;;5.20;99.90;;;;;;5000374;28;20050;-83
2020/12/27 07:25:14;;;;;;;2.22;1.52;;;5.20;99.90;;;;;;4997110;28;20088;-79
2020/12/27 07:27:41;;;;;;;2.38;1.70;;;5.30;99.90;;;;;;4996919;28;20109;-78
2020/12/27 07:30:08;;;;;;;1.60;1.00;;;5.20;99.90;;;;;;4996417;28;20104;-78
2020/12/27 07:32:43;;;;;;;1.30;1.20;;;5.30;99.90;;;;;;4995929;28;20051;-78
2020/12/27 07:35:10;;;;;;;1.65;0.85;;;5.20;99.90;;;;;;4996368;28;20105;-78
2020/12/27 07:37:38;;;;;;;0.55;0.50;;;5.20;99.90;;;;;;4995842;28;20578;-80
2020/12/27 07:40:05;;;;;;;2.45;1.85;;;5.20;99.90;;;;;;4998952;28;20100;-78
2020/12/27 07:42:34;;;;;;;2.47;2.28;;;5.20;99.90;;;;;;4998160;28;20078;-79
2020/12/27 07:45:03;;;;;;;3.80;0.90;;;5.20;99.90;;;;;;4996006;28;20133;-79
2020/12/27 07:47:29;;;;;;;5.00;2.63;;;5.20;99.90;;;;;;4995938;28;20085;-80
2020/12/27 07:50:10;;;;;;;1.98;1.13;;;5.30;99.90;;;;;;4995760;28;20097;-78
2020/12/27 07:52:45;;;;;;;2.05;1.73;;;5.30;99.90;;;;;;4996305;28;20065;-78
2020/12/27 07:55:12;;;;;;;2.10;1.55;;;5.30;99.90;;;;;;4996903;28;20097;-79
2020/12/27 07:57:44;;;;;;;1.08;0.75;;;5.30;99.90;;;;;;4996136;28;20085;-79
2020/12/27 08:00:11;;;;;;;1.40;1.30;;;5.30;99.90;;;;;;4996598;28;20502;-78
2020/12/27 08:02:38;;;;;;;1.17;1.08;;;5.30;99.90;;;;;;4995924;28;20133;-79
2020/12/27 08:05:05;;;;;;;2.75;1.70;;;5.40;99.90;;;;;;4981564;28;20094;-78
2020/12/27 08:07:31;;;;;;;1.35;0.90;;;5.40;99.90;;;;;;4976488;28;20134;-78
2020/12/27 08:09:58;;;;;;;2.50;1.73;;;5.40;99.90;;;;;;4977208;28;20526;-78
2020/12/27 08:12:24;;;;;;;1.42;1.30;;;5.30;99.90;;;;;;4976451;28;20126;-79
2020/12/27 08:14:53;;;;;;;1.40;0.95;;;5.40;99.90;;;;;;4976516;28;20504;-80
2020/12/27 08:17:20;;;;;;;1.85;0.70;;;5.40;99.90;;;;;;4975065;28;20058;-79
2020/12/27 08:19:47;;;;;;;1.20;1.02;;;5.40;99.90;;;;;;4975693;28;20134;-78
2020/12/27 08:22:13;;;;;;;2.55;2.05;;;5.40;99.90;;;;;;4975912;28;20090;-79
2020/12/27 08:24:40;;;;;;;1.95;1.67;;;5.40;99.90;;;;;;4977788;28;20101;-80
2020/12/27 08:27:07;;;;;;;2.13;1.90;;;5.40;99.90;;;;;;4978901;28;20061;-79
2020/12/27 08:29:34;;;;;;;1.00;1.00;;;5.40;99.90;;;;;;4979805;28;20138;-79
2020/12/27 08:32:06;;;;;;;3.38;1.83;;;5.40;99.90;;;;;;4978077;28;20086;-79
2020/12/27 08:34:33;;;;;;;3.38;1.00;;;5.40;99.90;;;;;;4980080;28;20059;-79
2020/12/27 08:37:00;;;;;;;1.42;1.10;;;5.50;99.90;;;;;;4980070;28;20051;-78
2020/12/27 08:39:33;;;;;;;1.15;1.00;;;5.40;99.90;;;;;;4980662;28;20051;-78
2020/12/27 08:42:04;;;;;;;4.45;3.40;;;5.50;99.90;;;;;;4979684;28;20082;-78
2020/12/27 08:44:44;;;;;;;2.17;1.63;;;5.50;99.90;;;;;;4979763;28;20082;-78
2020/12/27 08:47:39;;;;;;;3.47;2.80;;;5.50;99.90;;;;;;4981761;28;20134;-79
2020/12/27 08:50:09;;;;;;;1.30;0.75;;;5.60;99.90;;;;;;4982328;28;20502;-80
2020/12/27 08:52:35;;;;;;;5.55;3.25;;;5.50;99.90;;;;;;4982586;28;20480;-79
2020/12/27 08:55:04;;;;;;;1.75;1.30;;;5.60;99.90;;;;;;4982486;28;20094;-80
2020/12/27 08:57:31;;;;;;;4.68;2.42;;;5.50;99.90;;;;;;4984107;28;20085;-79
2020/12/27 09:00:09;;;;;;;2.80;2.45;;;5.60;99.90;;;;;;4984026;28;20086;-81
2020/12/27 09:02:37;;;;;;;1.40;0.90;;;5.60;99.90;;;;;;4983969;28;20422;-81
2020/12/27 09:05:08;;;;;;;6.30;2.67;;;5.60;99.90;;;;;;4984078;28;20137;-82
2020/12/27 09:07:37;;;;;;;2.85;1.52;;;5.60;99.90;;;;;;4984285;28;20082;-82
2020/12/27 09:10:11;;;;;;;0.95;0.95;;;5.60;99.90;;;;;;4984448;28;20086;-82
2020/12/27 09:12:39;;;;;;;2.55;2.17;;;5.60;99.90;;;;;;4984604;28;20596;-81
2020/12/27 09:15:22;;;;;;;1.65;1.55;;;5.50;99.90;;;;;;4986010;28;20491;-83
2020/12/27 09:17:54;;;;;;;;;;;5.50;99.90;;;;;;4986536;28;20078;-84
2020/12/27 09:20:22;;;;;;;2.58;1.67;;;5.60;99.90;;;;;;4985041;28;19922;-83
2020/12/27 09:22:49;;;;;;;1.70;1.48;;;5.50;99.90;;;;;;4985162;28;20055;-81
2020/12/27 09:25:18;;;;;;;0.88;0.88;;;5.60;99.90;;;;;;4984780;28;20074;-83
2020/12/27 09:27:45;;;;;;;1.92;1.35;;;5.60;99.90;;;;;;4985843;28;20119;-82
2020/12/27 09:30:14;;;;;;;1.63;1.10;;;5.50;99.90;;;;;;4985276;28;20491;-82
2020/12/27 09:32:41;;;;;;;1.67;1.38;;;5.50;99.90;;;;;;4984125;28;20112;-82
2020/12/27 09:35:09;;;;;;;2.38;1.80;;;5.50;99.90;;;;;;4984654;28;20062;-81
2020/12/27 09:37:35;;;;;;;3.28;1.98;;;5.50;99.90;;;;;;4983499;28;20051;-82
2020/12/27 09:40:03;;;;;;;1.98;1.88;;;5.50;99.90;;;;;;4984866;28;20058;-83
2020/12/27 09:42:33;;;;;;;3.25;2.17;;;5.50;99.90;;;;;;4986104;28;20145;-85
2020/12/27 09:45:16;;;;;;;2.17;1.60;;;5.40;99.90;;;;;;4983190;28;20395;-81
2020/12/27 09:47:53;;;;;;;1.65;1.40;;;5.40;99.90;;;;;;4982959;28;20082;-82
2020/12/27 09:50:30;;;;;;;2.72;2.50;;;5.40;99.90;;;;;;4984690;28;20102;-83
2020/12/27 09:52:56;;;;;;;5.18;2.88;;;5.40;99.90;;;;;;4983334;28;20082;-82
2020/12/27 09:55:23;;;;;;;5.07;2.60;;;5.40;99.90;;;;;;4983654;28;20518;-83
2020/12/27 09:57:50;;;;;;;3.08;2.58;;;5.50;99.90;;;;;;4983910;28;20093;-81
2020/12/27 10:00:16;;;;;;;1.75;1.63;;;5.50;99.90;;;;;;4983980;28;20086;-81
2020/12/27 10:02:43;;;;;;;1.98;1.60;;;5.50;99.90;;;;;;4982960;28;20050;-83
2020/12/27 10:05:09;;;;;;;1.58;1.45;;;5.50;99.90;;;;;;4985171;28;20050;-82
2020/12/27 10:07:37;;;;;;;2.25;1.75;;;5.50;99.90;;;;;;4985382;28;20081;-82
2020/12/27 10:10:04;;;;;;;2.17;1.98;;;5.50;99.90;;;;;;4985556;28;20054;-81
2020/12/27 10:12:31;;;;;;;2.47;1.65;;;5.50;99.90;;;;;;4984926;28;20047;-81
2020/12/27 10:14:57;;;;;;;2.15;2.00;;;5.50;99.90;;;;;;4986398;28;20082;-82
2020/12/27 10:17:24;;;;;;;1.70;1.50;;;5.50;99.90;;;;;;4990558;28;20054;-83
2020/12/27 10:19:51;;;;;;;4.00;2.30;;;5.50;99.90;;;;;;4994604;28;20055;-82
2020/12/27 10:22:26;;;;;;;3.10;1.60;;;5.50;99.90;;;;;;4995336;28;20050;-84
2020/12/27 10:24:54;;;;;;;3.30;1.65;;;5.60;99.90;;;;;;4993829;28;20058;-81
2020/12/27 10:27:21;;;;;;;2.15;1.10;;;5.60;99.90;;;;;;4997771;28;20050;-82
2020/12/27 10:29:48;;;;;;;1.60;1.30;;;5.60;99.90;;;;;;4997076;28;20042;-81
2020/12/27 10:32:15;;;;;;;1.88;1.58;;;5.60;99.90;;;;;;4997853;28;20050;-82
2020/12/27 10:34:41;;;;;;;2.00;1.35;;;5.60;99.90;;;;;;5004007;28;20538;-82
2020/12/27 10:37:08;;;;;;;2.83;1.55;;;5.60;99.90;;;;;;4999044;28;20047;-82
2020/12/27 10:39:34;;;;;;;2.55;1.90;;;5.60;99.90;;;;;;4998171;28;20043;-81
2020/12/27 10:42:02;;;;;;;1.80;1.35;;;5.60;99.90;;;;;;4995381;28;20073;-82
2020/12/27 10:44:28;;;;;;;1.38;1.27;;;5.80;99.90;;;;;;4995519;28;20076;-82
2020/12/27 10:46:55;;;;;;;1.45;1.35;;;5.80;99.90;;;;;;4996690;28;20050;-81
2020/12/27 10:49:24;;;;;;;2.78;1.65;;;5.70;99.90;;;;;;4988011;28;20046;-82
2020/12/27 10:51:51;;;;;;;1.95;1.27;;;5.70;99.90;;;;;;5000072;28;20065;-81
2020/12/27 10:54:17;;;;;;;2.15;1.45;;;5.70;99.90;;;;;;5003924;28;20046;-83
2020/12/27 10:56:45;;;;;;;3.83;1.00;;;5.70;99.90;;;;;;5003730;28;20046;-83
2020/12/27 10:59:14;;;;;;;1.88;1.40;;;5.70;99.90;;;;;;5001995;28;20042;-82
2020/12/27 11:01:44;;;;;;;2.33;1.60;;;5.70;99.90;;;;;;5004852;28;20470;-81
2020/12/27 11:04:12;;;;;;;1.98;1.30;;;5.70;99.90;;;;;;4997107;28;20061;-82
2020/12/27 11:06:39;;;;;;;3.28;1.20;;;5.70;99.90;;;;;;5004617;28;20042;-82
2020/12/27 11:09:05;;;;;;;1.23;1.13;;;5.70;99.90;;;;;;5001371;28;20115;-83
2020/12/27 11:11:32;;;;;;;5.30;1.63;;;5.70;99.90;;;;;;4985311;28;20053;-83
2020/12/27 11:13:58;;;;;;;1.65;1.27;;;5.70;99.90;;;;;;4997539;28;20042;-81
2020/12/27 11:16:25;;;;;;;1.02;1.00;;;5.70;99.90;;;;;;4990174;28;20070;-82
2020/12/27 11:18:52;;;;;;;1.83;1.42;;;5.80;99.90;;;;;;4995061;28;20404;-83
2020/12/27 11:21:18;;;;;;;1.58;1.38;;;5.80;99.90;;;;;;5002183;28;20054;-83
2020/12/27 11:23:45;;;;;;;1.08;0.95;;;5.90;99.90;;;;;;4995765;28;20051;-81
2020/12/27 11:26:11;;;;;;;7.93;1.90;;;5.90;99.90;;;;;;5000730;28;20509;-81
2020/12/27 11:28:37;;;;;;;2.65;1.55;;;5.90;99.90;;;;;;4994037;28;20066;-82
2020/12/27 11:31:04;;;;;;;0.70;0.70;;;5.90;99.90;;;;;;4998935;28;20043;-81
2020/12/27 11:33:31;;;;;;;1.40;1.27;;;5.90;99.90;;;;;;4999230;28;20054;-81
2020/12/27 11:35:58;;;;;;;1.20;1.10;;;6.00;99.90;;;;;;4998178;28;20492;-81
2020/12/27 11:38:24;;;;;;;2.55;1.13;;;6.00;99.90;;;;;;4991685;28;20058;-80
2020/12/27 11:40:50;;;;;;;2.95;1.60;;;6.00;99.90;;;;;;4997839;28;20109;-85
2020/12/27 11:43:23;;;;;;;1.38;1.02;;;6.10;99.90;;;;;;4993401;28;20046;-83
2020/12/27 11:45:49;;;;;;;1.23;1.08;;;6.10;99.90;;;;;;4994822;28;20085;-82
2020/12/27 11:48:16;;;;;;;1.77;1.00;;;6.00;99.90;;;;;;5002920;28;20058;-81
2020/12/27 11:50:43;;;;;;;1.10;1.00;;;6.10;99.90;;;;;;4989165;28;20182;-81
2020/12/27 11:53:10;;;;;;;1.35;1.25;;;6.10;99.90;;;;;;4989630;28;20359;-80
2020/12/27 11:55:38;;;;;;;0.60;0.60;;;6.00;99.90;;;;;;5000493;28;20042;-80
2020/12/27 11:58:06;;;;;;;2.38;0.85;;;6.00;99.90;;;;;;4991125;28;20051;-80
2020/12/27 12:00:33;;;;;;;1.65;1.15;;;6.00;99.90;;;;;;4987106;28;20053;-82
2020/12/27 12:03:15;;;;;;;2.35;0.82;;;6.10;99.90;;;;;;4990267;28;20050;-81
2020/12/27 12:05:43;;;;;;;3.20;1.45;;;6.10;99.90;;;;;;4989751;28;20070;-82
2020/12/27 12:08:15;;;;;;;1.65;1.05;;;6.10;99.90;;;;;;4987342;28;20051;-82
2020/12/27 12:10:52;;;;;;;3.13;1.40;;;6.10;99.90;;;;;;4996854;28;20070;-82
2020/12/27 12:13:22;;;;;;;1.80;1.33;;;6.20;99.90;;;;;;4991430;28;20317;-80
2020/12/27 12:15:50;;;;;;;0.60;0.60;;;6.20;99.90;;;;;;4994704;28;20058;-80
2020/12/27 12:18:17;;;;;;;1.17;0.85;;;6.20;99.90;;;;;;4991395;28;20046;-79
2020/12/27 12:20:47;;;;;;;2.97;1.60;;;6.10;99.90;;;;;;4999881;28;20085;-81
2020/12/27 12:23:15;;;;;;;3.83;0.93;;;6.20;99.90;;;;;;4995683;28;20057;-81
2020/12/27 12:25:43;;;;;;;4.18;1.52;;;6.20;99.90;;;;;;4995359;28;20054;-81
2020/12/27 12:28:15;;;;;;;1.15;1.00;;;6.10;99.90;;;;;;5003633;28;20053;-80
2020/12/27 12:30:45;;;;;;;1.65;1.55;;;6.20;99.90;;;;;;4998274;28;20046;-83
2020/12/27 12:33:12;;;;;;;1.17;1.05;;;6.20;99.90;;;;;;5003167;28;20061;-82
2020/12/27 12:35:40;;;;;;;0.85;0.73;;;6.20;99.90;;;;;;4997473;28;20500;-81
2020/12/27 12:38:07;;;;;;;1.08;0.73;;;6.20;99.90;;;;;;4996067;28;20090;-81
2020/12/27 12:40:33;;;;;;;0.80;0.80;;;6.20;99.90;;;;;;5003822;28;20062;-80
2020/12/27 12:43:00;;;;;;;0.85;0.80;;;6.20;99.90;;;;;;4999427;28;20131;-81
2020/12/27 12:45:26;;;;;;;1.92;1.13;;;6.20;99.90;;;;;;5004514;28;20054;-82
2020/12/27 12:47:53;;;;;;;0.75;0.75;;;6.20;99.90;;;;;;4995285;28;20055;-81
2020/12/27 12:50:19;;;;;;;1.00;0.90;;;6.20;99.90;;;;;;4998087;28;20046;-80
2020/12/27 12:52:46;;;;;;;1.85;1.00;;;6.20;99.90;;;;;;4985334;28;20166;-80
2020/12/27 12:55:13;;;;;;;1.40;1.30;;;6.20;99.90;;;;;;4986695;28;20058;-82
2020/12/27 12:57:43;;;;;;;1.35;1.25;;;6.20;99.90;;;;;;4997756;28;20052;-79
2020/12/27 13:00:11;;;;;;;1.70;0.95;;;6.20;99.90;;;;;;4995181;28;20054;-80
2020/12/27 13:02:38;;;;;;;1.92;1.48;;;6.20;99.90;;;;;;5001207;28;20105;-81
2020/12/27 13:05:05;;;;;;;0.90;0.90;;;6.20;99.90;;;;;;4999016;28;20116;-81
2020/12/27 13:07:31;;;;;;;2.17;0.90;;;6.20;99.90;;;;;;4991284;28;20038;-81